createdAt,value
2019-03-30T00:01:49.231Z,44.80
2019-03-30T00:04:15.173Z,45.00
2019-03-30T00:06:42.083Z,44.90
2019-03-30T00:09:08.234Z,44.90
2019-03-30T00:11:34.382Z,44.90
2019-03-30T00:14:00.537Z,44.90
2019-03-30T00:16:26.707Z,44.70
2019-03-30T00:18:53.630Z,44.70
2019-03-30T00:21:19.800Z,44.70
2019-03-30T00:23:47.892Z,44.80
2019-03-30T00:26:14.056Z,44.80
2019-03-30T00:28:40.263Z,44.80
2019-03-30T00:31:06.410Z,44.60
2019-03-30T00:33:32.553Z,44.60
2019-03-30T00:35:58.725Z,44.70
2019-03-30T00:38:24.876Z,44.70
2019-03-30T00:40:51.030Z,44.70
2019-03-30T00:43:17.187Z,44.40
2019-03-30T00:45:43.336Z,44.60
2019-03-30T00:48:09.485Z,44.50
2019-03-30T00:50:35.633Z,44.40
2019-03-30T00:53:01.804Z,44.50
2019-03-30T00:55:27.957Z,44.40
2019-03-30T00:57:54.134Z,44.30
2019-03-30T01:00:20.276Z,44.40
2019-03-30T01:02:46.449Z,44.40
2019-03-30T01:05:12.600Z,44.30
2019-03-30T01:07:38.776Z,44.20
2019-03-30T01:10:04.934Z,44.30
2019-03-30T01:12:31.097Z,44.40
2019-03-30T01:14:57.256Z,44.30
2019-03-30T01:17:23.424Z,44.30
2019-03-30T01:20:02.228Z,44.20
2019-03-30T01:22:15.791Z,44.20
2019-03-30T01:24:42.125Z,44.10
2019-03-30T01:27:08.274Z,44.10
2019-03-30T01:29:34.425Z,44.00
2019-03-30T01:32:00.573Z,44.00
2019-03-30T01:34:26.728Z,44.00
2019-03-30T01:36:52.916Z,44.00
2019-03-30T01:39:19.837Z,44.00
2019-03-30T01:41:46.021Z,43.90
2019-03-30T01:44:12.174Z,44.00
2019-03-30T01:46:39.090Z,44.00
2019-03-30T01:49:05.241Z,43.90
2019-03-30T01:51:31.389Z,44.00
2019-03-30T01:53:57.560Z,44.10
2019-03-30T01:56:23.713Z,43.90
2019-03-30T01:58:50.648Z,44.00
2019-03-30T02:01:16.809Z,43.90
2019-03-30T02:03:42.978Z,43.90
2019-03-30T02:06:09.129Z,43.80
2019-03-30T02:08:35.315Z,43.80
2019-03-30T02:11:01.467Z,43.80
2019-03-30T02:13:27.638Z,43.70
2019-03-30T02:15:53.796Z,43.80
2019-03-30T02:18:19.947Z,43.80
2019-03-30T02:20:46.099Z,43.70
2019-03-30T02:23:12.247Z,43.60
2019-03-30T02:25:38.401Z,43.60
2019-03-30T02:28:06.904Z,43.60
2019-03-30T02:30:30.751Z,43.70
2019-03-30T02:32:56.906Z,43.60
2019-03-30T02:35:26.468Z,43.60
2019-03-30T02:37:49.252Z,43.40
2019-03-30T02:40:15.407Z,43.60
2019-03-30T02:42:41.563Z,43.50
2019-03-30T02:45:07.740Z,43.40
2019-03-30T02:47:33.901Z,43.40
2019-03-30T02:50:00.056Z,43.50
2019-03-30T02:52:26.241Z,43.50
2019-03-30T02:54:52.390Z,43.60
2019-03-30T02:57:20.518Z,43.30
2019-03-30T02:59:46.690Z,43.30
2019-03-30T03:02:12.954Z,43.40
2019-03-30T03:04:39.052Z,43.40
2019-03-30T03:07:05.202Z,43.10
2019-03-30T03:09:31.377Z,43.30
2019-03-30T03:11:57.529Z,43.20
2019-03-30T03:14:23.701Z,43.00
2019-03-30T03:16:49.865Z,43.00
2019-03-30T03:19:16.021Z,43.20
2019-03-30T03:21:42.176Z,43.10
2019-03-30T03:24:08.330Z,43.10
2019-03-30T03:26:34.481Z,43.10
2019-03-30T03:29:00.632Z,42.90
2019-03-30T03:31:26.777Z,42.80
2019-03-30T03:33:52.929Z,42.90
2019-03-30T03:36:19.089Z,42.80
2019-03-30T03:38:46.012Z,42.90
2019-03-30T03:41:12.165Z,42.80
2019-03-30T03:43:38.328Z,42.70
2019-03-30T03:46:04.497Z,42.80
2019-03-30T03:48:30.648Z,42.60
2019-03-30T03:50:57.564Z,42.80
2019-03-30T03:53:23.716Z,42.70
2019-03-30T03:55:49.870Z,42.50
2019-03-30T03:58:16.016Z,42.90
2019-03-30T04:00:42.172Z,42.80
2019-03-30T04:03:08.330Z,42.80
2019-03-30T04:05:34.495Z,42.30
2019-03-30T04:08:00.653Z,42.40
2019-03-30T04:10:26.824Z,42.60
2019-03-30T04:12:52.974Z,42.40
2019-03-30T04:15:19.165Z,42.40
2019-03-30T04:17:46.089Z,42.40
2019-03-30T04:20:12.250Z,42.40
2019-03-30T04:22:38.400Z,42.50
2019-03-30T04:25:04.545Z,42.40
2019-03-30T04:27:30.705Z,42.50
2019-03-30T04:29:56.856Z,42.50
2019-03-30T04:32:23.012Z,42.50
2019-03-30T04:34:49.163Z,42.20
2019-03-30T04:37:15.312Z,42.20
2019-03-30T04:39:41.466Z,42.30
2019-03-30T04:42:07.619Z,42.40
2019-03-30T04:44:33.778Z,42.40
2019-03-30T04:47:00.089Z,42.20
2019-03-30T04:49:26.254Z,42.20
2019-03-30T04:51:57.922Z,42.20
2019-03-30T04:54:18.602Z,42.10
2019-03-30T04:56:44.782Z,42.90
2019-03-30T04:59:10.930Z,42.10
2019-03-30T05:01:37.092Z,42.10
2019-03-30T05:04:04.017Z,41.90
2019-03-30T05:06:30.185Z,41.80
2019-03-30T05:08:56.339Z,42.00
2019-03-30T05:11:22.509Z,42.00
2019-03-30T05:13:48.653Z,41.90
2019-03-30T05:16:15.917Z,42.10
2019-03-30T05:18:42.067Z,42.10
2019-03-30T05:21:08.221Z,42.10
2019-03-30T05:23:34.380Z,42.10
2019-03-30T05:26:01.304Z,42.00
2019-03-30T05:28:27.497Z,42.00
2019-03-30T05:30:53.649Z,41.90
2019-03-30T05:33:19.798Z,42.00
2019-03-30T05:35:45.956Z,41.90
2019-03-30T05:38:12.101Z,41.80
2019-03-30T05:40:38.248Z,41.80
2019-03-30T05:43:04.405Z,41.80
2019-03-30T05:45:30.556Z,41.80
2019-03-30T05:47:56.710Z,41.60
2019-03-30T05:50:22.853Z,41.50
2019-03-30T05:52:49.015Z,41.70
2019-03-30T05:55:15.167Z,41.60
2019-03-30T05:57:41.327Z,41.70
2019-03-30T06:00:07.481Z,41.60
2019-03-30T06:02:33.660Z,41.60
2019-03-30T06:05:03.141Z,41.80
2019-03-30T06:07:26.021Z,41.80
2019-03-30T06:09:52.164Z,41.60
2019-03-30T06:12:18.337Z,41.70
2019-03-30T06:14:44.497Z,41.60
2019-03-30T06:17:10.660Z,41.70
2019-03-30T06:19:36.810Z,41.50
2019-03-30T06:22:03.746Z,41.60
2019-03-30T06:24:29.909Z,41.60
2019-03-30T06:26:56.074Z,41.50
2019-03-30T06:29:22.221Z,41.70
2019-03-30T06:31:48.389Z,41.50
2019-03-30T06:34:14.545Z,41.40
2019-03-30T06:36:40.700Z,41.40
2019-03-30T06:39:06.855Z,41.50
2019-03-30T06:41:33.002Z,41.50
2019-03-30T06:43:59.324Z,41.40
2019-03-30T06:46:25.489Z,41.40
2019-03-30T06:48:52.422Z,41.60
2019-03-30T06:51:18.735Z,41.50
2019-03-30T06:53:44.890Z,41.40
2019-03-30T06:56:11.055Z,41.50
2019-03-30T06:58:37.973Z,41.50
2019-03-30T07:01:04.139Z,41.50
2019-03-30T07:03:30.290Z,41.50
2019-03-30T07:05:56.441Z,41.40
2019-03-30T07:08:22.594Z,41.50
2019-03-30T07:10:48.746Z,41.30
2019-03-30T07:13:14.921Z,41.50
2019-03-30T07:15:41.987Z,41.50
2019-03-30T07:18:08.133Z,41.50
2019-03-30T07:20:34.289Z,41.50
2019-03-30T07:23:11.229Z,41.50
2019-03-30T07:25:26.656Z,41.60
2019-03-30T07:27:52.816Z,41.50
2019-03-30T07:30:19.143Z,41.50
2019-03-30T07:32:45.310Z,41.50
2019-03-30T07:35:12.220Z,41.50
2019-03-30T07:37:38.386Z,41.50
2019-03-30T07:40:04.528Z,41.50
2019-03-30T07:42:30.685Z,41.50
2019-03-30T07:44:56.832Z,41.50
2019-03-30T07:47:23.000Z,41.50
2019-03-30T07:49:49.153Z,41.50
2019-03-30T07:52:15.300Z,41.50
2019-03-30T07:54:41.459Z,41.50
2019-03-30T07:57:16.821Z,41.50
2019-03-30T07:59:33.816Z,41.60
2019-03-30T08:02:00.729Z,41.60
2019-03-30T08:04:28.660Z,41.50
2019-03-30T08:06:53.083Z,41.60
2019-03-30T08:09:19.238Z,41.60
2019-03-30T08:11:45.383Z,41.60
2019-03-30T08:14:12.297Z,41.60
2019-03-30T08:16:38.450Z,41.60
2019-03-30T08:19:04.609Z,41.60
2019-03-30T08:21:30.773Z,41.60
2019-03-30T08:23:56.920Z,41.60
2019-03-30T08:26:23.841Z,41.70
2019-03-30T08:28:49.992Z,41.60
2019-03-30T08:31:16.144Z,41.80
2019-03-30T08:33:42.300Z,41.70
2019-03-30T08:36:08.448Z,41.70
2019-03-30T08:38:35.395Z,41.80
2019-03-30T08:41:01.541Z,41.80
2019-03-30T08:43:27.693Z,41.80
2019-03-30T08:45:53.841Z,41.80
2019-03-30T08:48:19.993Z,41.80
2019-03-30T08:50:46.133Z,41.80
2019-03-30T08:53:12.289Z,42.40
2019-03-30T08:55:38.438Z,41.90
2019-03-30T08:58:04.608Z,41.80
2019-03-30T09:00:30.757Z,41.80
2019-03-30T09:02:56.925Z,41.80
2019-03-30T09:05:23.074Z,41.90
2019-03-30T09:07:49.224Z,41.90
2019-03-30T09:10:15.907Z,41.90
2019-03-30T09:12:42.061Z,41.90
2019-03-30T09:15:08.231Z,41.90
2019-03-30T09:17:37.099Z,41.90
2019-03-30T09:20:00.618Z,41.90
2019-03-30T09:22:26.769Z,42.00
2019-03-30T09:24:53.762Z,41.90
2019-03-30T09:27:19.877Z,41.90
2019-03-30T09:29:46.040Z,41.90
2019-03-30T09:32:14.569Z,41.90
2019-03-30T09:34:38.393Z,41.90
2019-03-30T09:37:04.548Z,41.90
2019-03-30T09:39:31.467Z,41.90
2019-03-30T09:41:57.612Z,41.90
2019-03-30T09:44:23.769Z,41.90
2019-03-30T09:46:49.916Z,41.90
2019-03-30T09:49:16.089Z,42.00
2019-03-30T09:51:43.000Z,41.90
2019-03-30T09:54:22.857Z,41.90
2019-03-30T09:56:35.374Z,42.00
2019-03-30T09:59:01.544Z,42.00
2019-03-30T10:01:27.701Z,42.00
2019-03-30T10:03:53.864Z,41.90
2019-03-30T10:06:20.789Z,41.90
2019-03-30T10:08:46.945Z,41.90
2019-03-30T10:11:13.110Z,41.90
2019-03-30T10:13:39.261Z,42.00
2019-03-30T10:16:05.650Z,41.90
2019-03-30T10:18:31.803Z,41.90
2019-03-30T10:20:57.952Z,41.90
2019-03-30T10:23:24.112Z,41.80
2019-03-30T10:25:51.030Z,41.80
2019-03-30T10:28:17.185Z,41.80
2019-03-30T10:30:43.340Z,41.80
2019-03-30T10:33:09.498Z,41.90
2019-03-30T10:35:35.652Z,41.80
2019-03-30T10:38:02.568Z,41.80
2019-03-30T10:40:28.724Z,41.80
2019-03-30T10:42:54.872Z,41.90
2019-03-30T10:45:21.029Z,41.80
2019-03-30T10:47:47.181Z,41.80
2019-03-30T10:50:13.332Z,41.90
2019-03-30T10:52:39.485Z,42.40
2019-03-30T10:55:05.635Z,41.70
2019-03-30T10:57:31.786Z,41.70
2019-03-30T10:59:57.960Z,41.70
2019-03-30T11:02:24.120Z,41.70
2019-03-30T11:04:50.274Z,41.70
2019-03-30T11:07:16.424Z,41.70
2019-03-30T11:09:42.596Z,41.70
2019-03-30T11:12:08.750Z,41.70
2019-03-30T11:14:34.924Z,41.70
2019-03-30T11:17:01.081Z,41.80
2019-03-30T11:19:27.229Z,41.80
2019-03-30T11:21:53.380Z,41.80
2019-03-30T11:24:19.528Z,41.70
2019-03-30T11:26:45.721Z,41.70
2019-03-30T11:29:14.550Z,41.70
2019-03-30T11:31:40.701Z,41.70
2019-03-30T11:34:06.865Z,41.70
2019-03-30T11:36:33.029Z,42.40
2019-03-30T11:38:59.177Z,41.70
2019-03-30T11:41:25.335Z,41.70
2019-03-30T11:43:51.486Z,41.70
2019-03-30T11:46:19.412Z,41.70
2019-03-30T11:48:45.637Z,41.80
2019-03-30T11:51:11.781Z,41.70
2019-03-30T11:53:37.932Z,41.80
2019-03-30T11:56:04.095Z,41.70
2019-03-30T11:58:30.250Z,41.70
2019-03-30T12:00:56.407Z,41.60
2019-03-30T12:03:22.570Z,41.90
2019-03-30T12:05:48.789Z,41.70
2019-03-30T12:08:14.949Z,41.70
2019-03-30T12:10:41.277Z,41.80
2019-03-30T12:13:07.433Z,41.80
2019-03-30T12:15:33.587Z,41.70
2019-03-30T12:17:59.745Z,42.40
2019-03-30T12:20:25.896Z,42.30
2019-03-30T12:22:52.060Z,42.90
2019-03-30T12:25:18.233Z,43.00
2019-03-30T12:27:44.380Z,42.90
2019-03-30T12:30:10.587Z,42.70
2019-03-30T12:32:36.733Z,42.70
2019-03-30T12:35:02.921Z,42.50
2019-03-30T12:37:29.832Z,41.90
2019-03-30T12:39:58.235Z,41.90
2019-03-30T12:42:22.184Z,41.70
2019-03-30T12:44:48.333Z,41.60
2019-03-30T12:47:14.487Z,41.40
2019-03-30T12:49:41.404Z,41.10
2019-03-30T12:52:07.568Z,41.10
2019-03-30T12:54:33.876Z,41.10
2019-03-30T12:57:00.049Z,41.00
2019-03-30T12:59:26.238Z,41.00
2019-03-30T13:01:52.389Z,40.90
2019-03-30T13:04:18.536Z,40.90
2019-03-30T13:06:44.684Z,40.80
2019-03-30T13:09:10.837Z,40.80
2019-03-30T13:11:37.006Z,40.70
2019-03-30T13:14:03.158Z,40.80
2019-03-30T13:16:29.317Z,40.70
2019-03-30T13:18:55.479Z,40.60
2019-03-30T13:21:21.641Z,40.50
2019-03-30T13:23:47.796Z,40.50
2019-03-30T13:26:13.946Z,40.40
2019-03-30T13:28:40.097Z,40.30
2019-03-30T13:31:06.257Z,40.20
2019-03-30T13:33:32.409Z,40.20
2019-03-30T13:35:58.571Z,40.20
2019-03-30T13:38:25.961Z,39.80
2019-03-30T13:40:50.924Z,39.90
2019-03-30T13:43:17.075Z,40.00
2019-03-30T13:45:43.224Z,40.10
2019-03-30T13:48:09.377Z,39.90
2019-03-30T13:50:35.542Z,39.80
2019-03-30T13:53:01.695Z,39.70
2019-03-30T13:55:27.852Z,39.80
2019-03-30T13:57:54.010Z,39.90
2019-03-30T14:00:20.169Z,39.70
2019-03-30T14:02:46.328Z,39.60
2019-03-30T14:05:12.476Z,39.60
2019-03-30T14:07:38.627Z,39.80
2019-03-30T14:10:04.778Z,39.40
2019-03-30T14:12:30.930Z,39.60
2019-03-30T14:14:57.087Z,39.60
2019-03-30T14:17:24.002Z,39.50
2019-03-30T14:19:50.147Z,39.40
2019-03-30T14:22:16.299Z,39.40
2019-03-30T14:24:42.457Z,39.50
2019-03-30T14:27:08.609Z,39.50
2019-03-30T14:29:34.752Z,39.70
2019-03-30T14:32:00.916Z,39.60
2019-03-30T14:34:27.072Z,39.40
2019-03-30T14:36:53.221Z,39.30
2019-03-30T14:39:19.364Z,39.50
2019-03-30T14:41:45.515Z,39.40
2019-03-30T14:44:11.672Z,39.30
2019-03-30T14:46:37.820Z,39.30
2019-03-30T14:49:03.975Z,39.30
2019-03-30T14:51:30.125Z,39.40
2019-03-30T14:53:57.039Z,39.20
2019-03-30T14:56:23.202Z,39.20
2019-03-30T14:58:49.357Z,39.10
2019-03-30T15:01:15.525Z,39.10
2019-03-30T15:03:41.693Z,39.20
2019-03-30T15:06:07.839Z,39.00
2019-03-30T15:08:33.996Z,38.90
2019-03-30T15:11:00.144Z,38.90
2019-03-30T15:13:26.298Z,39.10
2019-03-30T15:15:52.445Z,38.90
2019-03-30T15:18:18.598Z,38.90
2019-03-30T15:20:44.761Z,38.80
2019-03-30T15:23:10.935Z,38.80
2019-03-30T15:25:37.107Z,39.00
2019-03-30T15:28:03.280Z,38.70
2019-03-30T15:30:29.436Z,38.50
2019-03-30T15:32:55.616Z,38.60
2019-03-30T15:35:21.756Z,38.60
2019-03-30T15:37:47.925Z,38.70
2019-03-30T15:40:14.068Z,38.70
2019-03-30T15:42:40.791Z,38.60
2019-03-30T15:45:06.467Z,38.50
2019-03-30T15:47:32.632Z,39.30
2019-03-30T15:49:58.790Z,38.40
2019-03-30T15:52:24.961Z,38.60
2019-03-30T15:54:51.108Z,38.60
2019-03-30T15:57:17.281Z,38.50
2019-03-30T15:59:43.429Z,38.60
2019-03-30T16:02:09.593Z,38.60
2019-03-30T16:04:35.751Z,38.50
2019-03-30T16:07:02.685Z,38.70
2019-03-30T16:09:28.838Z,38.60
2019-03-30T16:11:55.000Z,38.60
2019-03-30T16:14:21.154Z,38.40
2019-03-30T16:16:47.328Z,38.40
2019-03-30T16:19:13.487Z,38.50
2019-03-30T16:21:39.640Z,38.60
2019-03-30T16:24:05.798Z,38.40
2019-03-30T16:26:41.808Z,38.40
2019-03-30T16:28:58.120Z,38.40
2019-03-30T16:31:24.268Z,38.40
2019-03-30T16:33:50.422Z,38.40
2019-03-30T16:36:16.573Z,38.40
2019-03-30T16:38:42.757Z,38.30
2019-03-30T16:41:08.913Z,38.30
2019-03-30T16:43:35.080Z,38.60
2019-03-30T16:46:01.234Z,38.50
2019-03-30T16:48:27.405Z,38.30
2019-03-30T16:50:53.561Z,38.30
2019-03-30T16:53:19.736Z,38.40
2019-03-30T16:55:45.885Z,38.40
2019-03-30T16:58:12.061Z,38.30
2019-03-30T17:00:38.209Z,38.30
2019-03-30T17:03:04.373Z,38.10
2019-03-30T17:05:30.525Z,37.80
2019-03-30T17:07:56.697Z,37.90
2019-03-30T17:10:22.849Z,38.10
2019-03-30T17:12:49.016Z,38.30
2019-03-30T17:15:15.168Z,38.30
2019-03-30T17:17:41.345Z,38.50
2019-03-30T17:20:08.270Z,38.70
2019-03-30T17:22:34.441Z,38.60
2019-03-30T17:25:00.609Z,38.70
2019-03-30T17:27:26.788Z,38.90
2019-03-30T17:29:52.941Z,38.80
2019-03-30T17:32:19.096Z,38.90
2019-03-30T17:34:45.255Z,39.00
2019-03-30T17:37:14.340Z,39.00
2019-03-30T17:39:37.604Z,39.10
2019-03-30T17:42:03.786Z,39.10
2019-03-30T17:44:29.957Z,39.20
2019-03-30T17:46:56.114Z,39.30
2019-03-30T17:49:22.285Z,39.30
2019-03-30T17:51:48.437Z,39.40
2019-03-30T17:54:14.623Z,39.30
2019-03-30T17:56:40.781Z,39.40
2019-03-30T17:59:06.959Z,39.50
2019-03-30T18:01:33.174Z,39.60
2019-03-30T18:03:59.336Z,39.60
2019-03-30T18:06:25.496Z,39.50
2019-03-30T18:08:52.428Z,39.60
2019-03-30T18:11:18.585Z,39.60
2019-03-30T18:13:44.744Z,39.70
2019-03-30T18:16:10.906Z,39.60
2019-03-30T18:18:37.081Z,39.60
2019-03-30T18:21:03.233Z,39.70
2019-03-30T18:23:29.410Z,39.70
2019-03-30T18:25:55.560Z,39.80
2019-03-30T18:28:27.312Z,39.70
2019-03-30T18:30:47.912Z,39.80
2019-03-30T18:33:14.083Z,39.60
2019-03-30T18:35:40.242Z,39.70
2019-03-30T18:38:06.415Z,39.70
2019-03-30T18:40:32.586Z,39.60
2019-03-30T18:42:58.733Z,39.70
2019-03-30T18:45:24.908Z,39.40
2019-03-30T18:47:51.056Z,39.50
2019-03-30T18:50:17.231Z,39.50
2019-03-30T18:52:43.381Z,39.60
2019-03-30T18:55:09.554Z,39.70
2019-03-30T18:57:35.707Z,39.50
2019-03-30T19:00:01.917Z,39.70
2019-03-30T19:02:28.164Z,39.80
2019-03-30T19:04:54.482Z,39.70
2019-03-30T19:07:20.641Z,40.10
2019-03-30T19:09:46.792Z,39.50
2019-03-30T19:12:12.969Z,39.80
2019-03-30T19:14:39.131Z,40.00
2019-03-30T19:17:05.281Z,39.90
2019-03-30T19:19:32.203Z,40.00
2019-03-30T19:21:58.364Z,40.00
2019-03-30T19:24:24.512Z,40.00
2019-03-30T19:26:50.682Z,40.10
2019-03-30T19:29:16.846Z,40.30
2019-03-30T19:31:42.997Z,40.30
2019-03-30T19:34:09.161Z,40.20
2019-03-30T19:36:35.326Z,40.10
2019-03-30T19:39:01.473Z,40.10
2019-03-30T19:41:27.638Z,40.10
2019-03-30T19:43:53.792Z,40.10
2019-03-30T19:46:19.969Z,40.10
2019-03-30T19:48:46.119Z,40.10
2019-03-30T19:51:12.281Z,40.10
2019-03-30T19:53:40.046Z,40.10
2019-03-30T19:56:06.215Z,40.10
2019-03-30T19:58:32.360Z,40.10
2019-03-30T20:00:58.519Z,40.10
2019-03-30T20:03:24.667Z,40.90
2019-03-30T20:05:50.837Z,40.10
2019-03-30T20:08:16.989Z,40.10
2019-03-30T20:10:43.154Z,40.20
2019-03-30T20:13:09.411Z,40.10
2019-03-30T20:15:35.581Z,40.10
2019-03-30T20:18:01.742Z,40.10
2019-03-30T20:20:27.904Z,40.10
2019-03-30T20:22:54.063Z,40.10
2019-03-30T20:25:20.225Z,40.10
2019-03-30T20:27:46.382Z,40.10
2019-03-30T20:30:12.716Z,40.20
2019-03-30T20:32:38.885Z,40.20
2019-03-30T20:35:05.058Z,40.10
2019-03-30T20:37:31.210Z,40.10
2019-03-30T20:39:57.376Z,40.20
2019-03-30T20:42:23.531Z,40.10
2019-03-30T20:44:49.705Z,40.20
2019-03-30T20:47:15.861Z,40.10
2019-03-30T20:49:42.136Z,40.20
2019-03-30T20:52:08.291Z,40.30
2019-03-30T20:54:34.442Z,40.20
2019-03-30T20:57:00.610Z,40.20
2019-03-30T20:59:39.396Z,40.20
2019-03-30T21:01:52.965Z,40.30
2019-03-30T21:04:19.120Z,40.10
2019-03-30T21:06:45.303Z,40.20
2019-03-30T21:09:11.452Z,40.20
2019-03-30T21:11:37.616Z,40.20
2019-03-30T21:14:03.766Z,40.20
2019-03-30T21:16:30.706Z,40.20
2019-03-30T21:18:56.862Z,40.20
2019-03-30T21:21:23.038Z,40.20
2019-03-30T21:23:49.189Z,40.20
2019-03-30T21:26:15.461Z,40.20
2019-03-30T21:28:41.609Z,40.20
2019-03-30T21:31:07.786Z,40.30
2019-03-30T21:33:33.953Z,40.30
2019-03-30T21:36:00.124Z,40.30
2019-03-30T21:38:26.284Z,40.20
2019-03-30T21:40:52.468Z,40.10
2019-03-30T21:43:19.830Z,40.20
2019-03-30T21:45:44.908Z,40.20
2019-03-30T21:48:11.059Z,40.10
2019-03-30T21:50:37.381Z,40.20
2019-03-30T21:53:03.533Z,40.10
2019-03-30T21:55:29.708Z,40.10
2019-03-30T21:57:55.861Z,40.10
2019-03-30T22:00:22.024Z,40.10
2019-03-30T22:02:48.185Z,40.10
2019-03-30T22:05:14.402Z,40.10
2019-03-30T22:07:40.569Z,40.10
2019-03-30T22:10:06.734Z,40.10
2019-03-30T22:12:32.900Z,40.10
2019-03-30T22:14:59.053Z,40.00
2019-03-30T22:17:25.230Z,40.10
2019-03-30T22:19:51.389Z,40.80
2019-03-30T22:22:17.561Z,40.20
2019-03-30T22:24:43.724Z,40.20
2019-03-30T22:27:09.900Z,40.10
2019-03-30T22:29:36.056Z,40.10
2019-03-30T22:32:02.400Z,40.20
2019-03-30T22:34:28.568Z,40.20
2019-03-30T22:36:54.748Z,40.10
2019-03-30T22:39:20.897Z,40.20
2019-03-30T22:41:47.062Z,40.20
2019-03-30T22:44:13.208Z,40.20
2019-03-30T22:46:39.365Z,40.20
2019-03-30T22:49:05.515Z,40.20
2019-03-30T22:51:31.668Z,40.10
2019-03-30T22:53:57.808Z,40.20
2019-03-30T22:56:24.720Z,40.40
2019-03-30T22:58:50.872Z,40.10
2019-03-30T23:01:17.048Z,40.10
2019-03-30T23:03:43.198Z,40.20
2019-03-30T23:06:09.576Z,40.10
2019-03-30T23:08:35.732Z,40.10
2019-03-30T23:11:01.932Z,40.10
2019-03-30T23:13:28.110Z,40.20
2019-03-30T23:15:54.417Z,40.30
2019-03-30T23:18:20.590Z,40.00
2019-03-30T23:20:46.741Z,40.10
2019-03-30T23:23:12.948Z,40.20
2019-03-30T23:25:39.873Z,40.20
2019-03-30T23:28:06.042Z,40.20
2019-03-30T23:30:32.195Z,40.10
2019-03-30T23:32:58.409Z,40.30
2019-03-30T23:35:24.563Z,40.40
2019-03-30T23:37:50.724Z,40.50
2019-03-30T23:40:16.869Z,40.50
2019-03-30T23:42:43.046Z,40.40
2019-03-30T23:45:09.195Z,40.10
2019-03-30T23:47:35.375Z,40.20
2019-03-30T23:50:01.522Z,40.30
2019-03-30T23:52:27.884Z,40.20
2019-03-30T23:54:55.006Z,40.40
2019-03-30T23:57:21.164Z,40.30
2019-03-30T23:59:47.327Z,40.30
